Main page
METAR-TAF:

METAR-TAF

Airports :

Radom Airport

Radom, Poland

latitude: 51-23-21N, longitude: 21-12-49E, elevation: 186 m

Current weather observation

The report was made 2 hours and 37 minutes ago, at 15:00 UTC
Wind 8 kt from the West/Northwest
Temperature 13°C
Humidity 67%
Pressure 1030 hPa
Visibility 10 km or more
Scattered clouds at a height of 4200 ft

METAR: EPRA 221500Z 30008KT 9999 SCT042 13/07 Q1030

Time: 18:37 (17:37 UTC)

Forecast

The report was made 37 minutes ago, at 17:00 UTC
Forecast valid from 22 at 18 UTC to 23 at 03 UTC
Wind 4 kt from variable directions
Visibility 10 km or more
no clouds below 1500 m and no cumulonimbus

TAF: EPRA 221700Z 2218/2303 VRB04KT CAVOK

Weather observations and forecasts of more than 4000 airports (METAR and TAF reports).

The available stations are represented by yellow and red dots on the map.

Hover mouse over dot to see the name of the station.

Then click to see weather observations and forecasts.

To change the map : click on the green buttons with a black cross to zoom in, on the green button with a dash to zoom out, or on the green arrows for adjacent maps.


METAR-TAF: